Andover, OH

6:54 AM EDT on September 17, 2014 (GMT -0400)
Roaming Shores - Beach 2 Cove | Change Station
CLOSE
Current Station
Personal Weather Station
Location: Roaming Shores, OH
Elevation: 883 ft
Nearby Weather Stations

Elev 883 ft 41.63 °N, 80.82 °W | Updated 4 minutes ago

Partly Cloudy
Partly Cloudy
46.4 °F
Feels Like 46 °F
N
0.0
Wind Variable Wind from SSE

Today
High -- | Low -- °F
--% Chance of Precip.
Yesterday
High -- | Low -- °F
Precip. -- in
7:04 AM 7:28 PM
Last Quarter, 37% visible
Pressure 30.07 in
Visibility 9.0 miles
Clouds Overcast 5000 ft
Windchill 46 °F
Dew Point 46 °F
Humidity 98%
Rainfall 0.00 in
Snow Depth Not available.
UV 0 out of 12
Pollen 3.30 out of 12
Air Quality Not available.
Flu Activity Not available.
METAR KHZY 170953Z AUTO 00000KT 9SM OVC050 09/08 A3007 RMK AO2 SLP183 T00890078

More Conditions Fewer Conditions

Pressure 30.07 in
Visibility 9.0 miles
Clouds Overcast 5000 ft
Windchill 46 °F
Dew Point 46 °F
Humidity 98%
Rainfall 0.00 in
Snow Depth Not available.
UV 0 out of 12
Pollen 3.30 out of 12
Air Quality Not available.
Flu Activity Not available.
METAR KHZY 170953Z AUTO 00000KT 9SM OVC050 09/08 A3007 RMK AO2 SLP183 T00890078

More Conditions Fewer Conditions

10-Day Weather Forecast

Almanac

Astronomy

Sep. 17, 2014 Rise Set
Actual Time 7:04 AM EDT 7:28 PM EDT
Civil Twilight 6:36 AM EDT 7:56 PM EDT
Nautical Twilight 6:04 AM EDT 8:28 PM EDT
Astronomical Twilight 5:30 AM EDT 9:02 PM EDT
Moon 12:59 AM EDT 3:40 PM EDT
Length of Visible Light 13h 19m
Length of Day
12h 23m
Tomorrow will be 2m 45s shorter.
Last Quarter, 37% of the Moon is Illuminated
Today
Last Quarter
Sep 24
New
Oct 1
First Quarter
Oct 8
Full
Oct 15
Last Quarter

Today's Extremes

State Highs State Lows

Community

WunderPhotos

Upload Photos

1,753,993 photos uploaded!

Nearby

Air Quality

  Air Quality AQ Index Pollutant
Yesterday Good
OZONE
Yesterday Good
PM10
Wednesday Good
PM2.5
Wednesday Good
OZONE
Thursday Good
PM2.5
Thursday Good
OZONE
Friday Moderate
PM2.5
Friday Good
OZONE
Saturday Good
PM2.5
Saturday Good
OZONE

Snow Depth

Station Depth Elevation
No new snow has been reported.

Earthquake Activity

City Distance Mag. Time & Date
No recent earthquake activity has been reported nearby.
Minimum magnitude displayed is 2.5.

Coastal Water Temperatures

Place Temperature
Fairport, OH 64.9 °F
Cleveland, OH 66.9 °F

Nearby Weather Stations